createdAt,value
2019-04-06T00:01:54.106Z,99.90
2019-04-06T00:04:38.896Z,99.90
2019-04-06T00:07:23.467Z,99.90
2019-04-06T00:10:08.087Z,99.90
2019-04-06T00:12:52.992Z,99.90
2019-04-06T00:15:37.592Z,99.90
2019-04-06T00:18:22.793Z,99.90
2019-04-06T00:21:07.337Z,99.90
2019-04-06T00:23:52.029Z,99.90
2019-04-06T00:26:36.558Z,99.90
2019-04-06T00:29:21.180Z,99.90
2019-04-06T00:32:13.169Z,99.90
2019-04-06T00:34:57.781Z,99.90
2019-04-06T00:37:42.694Z,99.90
2019-04-06T00:40:27.218Z,99.90
2019-04-06T00:43:12.535Z,99.90
2019-04-06T00:45:57.484Z,99.90
2019-04-06T00:48:41.974Z,99.90
2019-04-06T00:51:26.859Z,99.90
2019-04-06T00:54:11.834Z,99.90
2019-04-06T00:56:56.545Z,99.90
2019-04-06T00:59:40.949Z,99.90
2019-04-06T01:02:25.830Z,99.90
2019-04-06T01:05:10.922Z,99.90
2019-04-06T01:07:55.776Z,99.90
2019-04-06T01:10:40.793Z,99.90
2019-04-06T01:13:25.298Z,99.90
2019-04-06T01:16:10.601Z,99.90
2019-04-06T01:18:55.578Z,99.90
2019-04-06T01:21:40.058Z,99.90
2019-04-06T01:24:24.958Z,99.90
2019-04-06T01:27:10.181Z,99.90
2019-04-06T01:29:54.825Z,99.90
2019-04-06T01:32:39.514Z,99.90
2019-04-06T01:35:24.170Z,99.90
2019-04-06T01:38:08.740Z,99.90
2019-04-06T01:40:53.467Z,99.90
2019-04-06T01:43:38.310Z,99.90
2019-04-06T01:46:23.310Z,99.90
2019-04-06T01:49:08.025Z,99.90
2019-04-06T01:51:53.024Z,99.90
2019-04-06T01:54:37.634Z,99.90
2019-04-06T01:57:22.118Z,99.90
2019-04-06T02:00:09.523Z,99.90
2019-04-06T02:02:56.010Z,99.90
2019-04-06T02:05:41.002Z,99.90
2019-04-06T02:08:25.594Z,99.90
2019-04-06T02:11:10.210Z,99.90
2019-04-06T02:13:54.919Z,99.90
2019-04-06T02:16:39.723Z,99.90
2019-04-06T02:19:24.649Z,99.90
2019-04-06T02:22:09.374Z,99.90
2019-04-06T02:24:54.011Z,99.90
2019-04-06T02:27:38.583Z,99.90
2019-04-06T02:30:27.743Z,99.90
2019-04-06T02:33:25.785Z,99.90
2019-04-06T02:36:12.299Z,99.90
2019-04-06T02:39:01.651Z,99.90
2019-04-06T02:41:48.447Z,99.90
2019-04-06T02:44:33.184Z,99.90
2019-04-06T02:47:18.236Z,99.90
2019-04-06T02:50:06.726Z,99.90
2019-04-06T02:52:51.493Z,99.90
2019-04-06T02:55:36.378Z,99.90
2019-04-06T02:58:23.194Z,99.90
2019-04-06T03:01:08.026Z,99.90
2019-04-06T03:03:53.238Z,99.90
2019-04-06T03:06:38.254Z,99.90
2019-04-06T03:09:23.255Z,99.90
2019-04-06T03:12:08.303Z,99.90
2019-04-06T03:14:53.299Z,99.90
2019-04-06T03:17:38.227Z,99.90
2019-04-06T03:20:23.178Z,99.90
2019-04-06T03:23:08.130Z,99.90
2019-04-06T03:25:53.255Z,99.90
2019-04-06T03:28:38.446Z,99.90
2019-04-06T03:31:27.006Z,99.90
2019-04-06T03:34:09.922Z,99.90
2019-04-06T03:36:54.887Z,99.90
2019-04-06T03:39:40.135Z,99.90
2019-04-06T03:42:25.153Z,99.90
2019-04-06T03:45:09.964Z,99.90
2019-04-06T03:47:55.133Z,99.90
2019-04-06T03:50:39.609Z,99.90
2019-04-06T03:53:24.563Z,99.90
2019-04-06T03:56:09.410Z,99.90
2019-04-06T03:58:53.980Z,99.90
2019-04-06T04:01:38.634Z,99.90
2019-04-06T04:04:24.195Z,99.90
2019-04-06T04:07:09.161Z,99.90
2019-04-06T04:09:54.189Z,99.90
2019-04-06T04:12:39.181Z,99.90
2019-04-06T04:15:24.229Z,99.90
2019-04-06T04:18:09.672Z,99.90
2019-04-06T04:20:54.453Z,99.90
2019-04-06T04:23:39.702Z,99.90
2019-04-06T04:26:24.353Z,99.90
2019-04-06T04:29:09.363Z,99.90
2019-04-06T04:31:54.073Z,99.90
2019-04-06T04:34:39.153Z,99.90
2019-04-06T04:37:24.408Z,99.90
2019-04-06T04:40:09.405Z,99.90
2019-04-06T04:42:54.371Z,99.90
2019-04-06T04:45:39.303Z,99.90
2019-04-06T04:48:24.285Z,99.90
2019-04-06T04:51:09.658Z,99.90
2019-04-06T04:53:54.299Z,99.90
2019-04-06T04:56:39.002Z,99.90
2019-04-06T04:59:24.213Z,99.90
2019-04-06T05:02:09.122Z,99.90
2019-04-06T05:04:53.602Z,99.90
2019-04-06T05:07:38.537Z,99.90
2019-04-06T05:10:23.557Z,99.90
2019-04-06T05:13:08.526Z,99.90
2019-04-06T05:15:57.233Z,99.90
2019-04-06T05:18:42.528Z,99.90
2019-04-06T05:21:27.316Z,99.90
2019-04-06T05:24:12.130Z,99.90
2019-04-06T05:26:57.015Z,99.90
2019-04-06T05:29:42.164Z,99.90
2019-04-06T05:32:27.212Z,99.90
2019-04-06T05:35:12.240Z,99.90
2019-04-06T05:37:57.248Z,99.90
2019-04-06T05:40:42.393Z,99.90
2019-04-06T05:43:27.435Z,99.90
2019-04-06T05:46:12.869Z,99.90
2019-04-06T05:48:57.718Z,99.90
2019-04-06T05:51:42.473Z,99.90
2019-04-06T05:54:27.622Z,99.90
2019-04-06T05:57:12.660Z,99.90
2019-04-06T05:59:58.110Z,99.90
2019-04-06T06:02:43.097Z,99.90
2019-04-06T06:05:27.882Z,99.90
2019-04-06T06:08:12.437Z,99.90
2019-04-06T06:10:57.227Z,99.90
2019-04-06T06:13:42.357Z,99.90
2019-04-06T06:16:27.263Z,99.90
2019-04-06T06:19:12.606Z,99.90
2019-04-06T06:21:57.679Z,99.90
2019-04-06T06:24:42.759Z,99.90
2019-04-06T06:27:27.684Z,99.90
2019-04-06T06:30:13.264Z,99.90
2019-04-06T06:32:58.117Z,99.90
2019-04-06T06:35:43.163Z,99.90
2019-04-06T06:38:28.389Z,99.90
2019-04-06T06:41:13.288Z,99.90
2019-04-06T06:43:58.088Z,99.90
2019-04-06T06:46:43.434Z,99.90
2019-04-06T06:49:27.972Z,99.90
2019-04-06T06:52:12.700Z,99.90
2019-04-06T06:54:57.852Z,99.90
2019-04-06T06:57:43.351Z,99.90
2019-04-06T07:00:28.423Z,99.90
2019-04-06T07:03:13.471Z,99.90
2019-04-06T07:05:58.412Z,99.90
2019-04-06T07:08:43.752Z,99.90
2019-04-06T07:11:28.508Z,99.90
2019-04-06T07:14:13.209Z,99.90
2019-04-06T07:16:58.179Z,99.90
2019-04-06T07:19:43.720Z,99.90
2019-04-06T07:22:28.538Z,99.90
2019-04-06T07:25:14.012Z,99.90
2019-04-06T07:27:58.935Z,99.90
2019-04-06T07:30:43.910Z,99.90
2019-04-06T07:33:29.171Z,99.90
2019-04-06T07:36:14.223Z,99.90
2019-04-06T07:38:59.375Z,99.90
2019-04-06T07:41:44.398Z,99.90
2019-04-06T07:44:29.113Z,99.90
2019-04-06T07:47:14.086Z,99.90
2019-04-06T07:49:59.138Z,99.90
2019-04-06T07:52:44.193Z,99.90
2019-04-06T07:55:29.444Z,99.90
2019-04-06T07:58:14.487Z,99.90
2019-04-06T08:00:59.350Z,99.90
2019-04-06T08:03:44.451Z,99.90
2019-04-06T08:06:29.873Z,99.90
2019-04-06T08:09:14.865Z,99.90
2019-04-06T08:11:59.905Z,99.90
2019-04-06T08:14:44.886Z,99.90
2019-04-06T08:17:29.928Z,99.90
2019-04-06T08:20:14.906Z,99.90
2019-04-06T08:22:59.904Z,99.90
2019-04-06T08:25:45.038Z,99.90
2019-04-06T08:28:29.721Z,99.90
2019-04-06T08:31:14.411Z,99.90
2019-04-06T08:33:59.407Z,99.90
2019-04-06T08:36:44.550Z,99.90
2019-04-06T08:39:29.362Z,99.90
2019-04-06T08:42:14.581Z,99.90
2019-04-06T08:45:00.016Z,99.90
2019-04-06T08:47:45.145Z,99.90
2019-04-06T08:50:30.294Z,99.90
2019-04-06T08:53:15.255Z,99.90
2019-04-06T08:56:00.165Z,99.90
2019-04-06T08:58:45.292Z,99.90
2019-04-06T09:01:29.906Z,99.90
2019-04-06T09:04:14.442Z,99.90
2019-04-06T09:06:59.336Z,99.90
2019-04-06T09:09:44.105Z,99.90
2019-04-06T09:12:29.358Z,99.90
2019-04-06T09:15:15.772Z,99.90
2019-04-06T09:18:00.644Z,99.90
2019-04-06T09:20:45.930Z,99.90
2019-04-06T09:23:31.063Z,99.90
2019-04-06T09:26:16.576Z,99.90
2019-04-06T09:29:01.997Z,99.90
2019-04-06T09:31:46.790Z,99.90
2019-04-06T09:34:31.481Z,99.90
2019-04-06T09:37:16.716Z,99.90
2019-04-06T09:40:03.342Z,99.90
2019-04-06T09:42:48.062Z,99.90
2019-04-06T09:45:37.326Z,99.90
2019-04-06T09:48:27.213Z,99.90
2019-04-06T09:51:16.479Z,99.90
2019-04-06T09:54:07.348Z,99.90
2019-04-06T09:57:10.927Z,99.90
2019-04-06T10:00:00.802Z,99.90
2019-04-06T10:02:47.643Z,99.90
2019-04-06T10:05:40.022Z,99.90
2019-04-06T10:08:29.045Z,99.90
2019-04-06T10:11:18.647Z,99.90
2019-04-06T10:14:07.672Z,99.90
2019-04-06T10:16:56.874Z,99.90
2019-04-06T10:19:43.934Z,99.90
2019-04-06T10:22:33.138Z,99.90
2019-04-06T10:25:20.130Z,99.90
2019-04-06T10:28:23.578Z,99.90
2019-04-06T10:31:26.615Z,99.90
2019-04-06T10:34:18.607Z,99.90
2019-04-06T10:37:08.222Z,99.90
2019-04-06T10:39:58.536Z,99.90
2019-04-06T10:43:01.746Z,99.90
2019-04-06T10:45:57.815Z,99.90
2019-04-06T10:48:44.873Z,99.90
2019-04-06T10:51:31.692Z,99.90
2019-04-06T10:54:21.316Z,99.90
2019-04-06T10:57:13.923Z,99.90
2019-04-06T11:00:06.475Z,99.90
2019-04-06T11:03:02.827Z,99.90
2019-04-06T11:05:55.691Z,99.90
2019-04-06T11:08:51.016Z,99.90
2019-04-06T11:11:37.601Z,99.90
2019-04-06T11:14:24.401Z,99.90
2019-04-06T11:17:27.080Z,99.90
2019-04-06T11:20:16.281Z,99.90
2019-04-06T11:23:06.011Z,99.90
2019-04-06T11:26:10.748Z,99.00
2019-04-06T11:29:15.431Z,99.00
2019-04-06T11:32:18.618Z,98.40
2019-04-06T11:35:09.935Z,98.10
2019-04-06T11:38:13.179Z,99.00
2019-04-06T11:40:59.836Z,97.40
2019-04-06T11:43:52.828Z,97.80
2019-04-06T11:46:52.290Z,96.60
2019-04-06T11:49:39.346Z,95.70
2019-04-06T11:52:35.155Z,93.20
2019-04-06T11:55:38.982Z,94.20
2019-04-06T11:58:31.416Z,93.60
2019-04-06T12:01:27.769Z,94.50
2019-04-06T12:04:14.587Z,93.00
2019-04-06T12:07:19.276Z,90.50
2019-04-06T12:10:06.813Z,90.80
2019-04-06T12:12:55.683Z,88.80
2019-04-06T12:15:50.606Z,88.40
2019-04-06T12:18:37.582Z,90.30
2019-04-06T12:21:36.163Z,90.30
2019-04-06T12:24:34.943Z,85.70
2019-04-06T12:27:23.978Z,83.00
2019-04-06T12:30:37.752Z,84.90
2019-04-06T12:33:24.843Z,82.70
2019-04-06T12:36:27.473Z,80.30
2019-04-06T12:39:14.434Z,77.00
2019-04-06T12:42:10.478Z,75.50
2019-04-06T12:45:03.268Z,76.90
2019-04-06T12:48:07.149Z,74.50
2019-04-06T12:51:05.990Z,76.20
2019-04-06T12:53:52.784Z,73.10
2019-04-06T12:56:57.419Z,71.60
2019-04-06T12:59:53.377Z,71.90
2019-04-06T13:02:58.590Z,71.80
2019-04-06T13:05:57.641Z,65.30
2019-04-06T13:09:01.364Z,65.30
2019-04-06T13:11:54.211Z,63.30
2019-04-06T13:14:46.833Z,63.50
2019-04-06T13:17:36.094Z,60.50
2019-04-06T13:20:22.876Z,57.20
2019-04-06T13:23:26.268Z,56.30
2019-04-06T13:26:13.049Z,57.20
2019-04-06T13:29:02.338Z,55.70
2019-04-06T13:31:51.965Z,57.00
2019-04-06T13:34:47.822Z,57.50
2019-04-06T13:37:37.010Z,57.10
2019-04-06T13:40:32.864Z,55.30
2019-04-06T13:43:19.813Z,55.40
2019-04-06T13:46:06.810Z,56.70
2019-04-06T13:48:53.542Z,55.60
2019-04-06T13:51:51.911Z,53.30
2019-04-06T13:54:44.230Z,50.00
2019-04-06T13:57:47.378Z,52.70
2019-04-06T14:00:50.570Z,53.50
2019-04-06T14:03:55.162Z,53.50
2019-04-06T14:06:58.303Z,52.30
2019-04-06T14:09:56.735Z,49.90
2019-04-06T14:12:43.741Z,49.10
2019-04-06T14:15:36.159Z,48.80
2019-04-06T14:18:22.522Z,48.70
2019-04-06T14:21:14.964Z,47.90
2019-04-06T14:24:01.693Z,48.90
2019-04-06T14:27:03.437Z,48.50
2019-04-06T14:29:52.592Z,48.50
2019-04-06T14:32:45.666Z,47.20
2019-04-06T14:35:48.547Z,48.90
2019-04-06T14:38:46.869Z,47.30
2019-04-06T14:41:49.895Z,46.50
2019-04-06T14:44:37.270Z,47.10
2019-04-06T14:47:32.913Z,44.50
2019-04-06T14:50:19.920Z,44.60
2019-04-06T14:53:23.552Z,46.40
2019-04-06T14:56:10.442Z,48.20
2019-04-06T14:58:59.737Z,47.40
2019-04-06T15:01:57.185Z,49.50
2019-04-06T15:04:51.217Z,49.10
2019-04-06T15:07:38.042Z,47.20
2019-04-06T15:10:40.935Z,47.60
2019-04-06T15:13:42.287Z,47.80
2019-04-06T15:16:41.364Z,48.40
2019-04-06T15:19:30.667Z,48.40
2019-04-06T15:22:20.016Z,48.10
2019-04-06T15:26:31.759Z,49.30
2019-04-06T15:29:21.592Z,49.50
2019-04-06T15:32:25.105Z,50.60
2019-04-06T15:35:18.532Z,48.20
2019-04-06T15:38:18.056Z,47.30
2019-04-06T15:41:13.981Z,47.10
2019-04-06T15:44:17.450Z,46.70
2019-04-06T15:47:17.015Z,44.90
2019-04-06T15:50:16.091Z,44.10
2019-04-06T15:53:08.689Z,42.50
2019-04-06T15:55:58.142Z,42.90
2019-04-06T15:58:45.010Z,43.20
2019-04-06T16:01:35.036Z,41.80
2019-04-06T16:04:24.716Z,40.10
2019-04-06T16:07:11.820Z,42.40
2019-04-06T16:10:07.583Z,41.00
2019-04-06T16:13:11.131Z,40.80
2019-04-06T16:16:01.469Z,38.50
2019-04-06T16:18:48.505Z,38.70
2019-04-06T16:21:38.123Z,39.90
2019-04-06T16:24:37.448Z,39.90
2019-04-06T16:27:39.901Z,41.00
2019-04-06T16:30:27.091Z,40.70
2019-04-06T16:33:14.476Z,40.80
2019-04-06T16:36:01.967Z,40.30
2019-04-06T16:39:00.466Z,40.30
2019-04-06T16:41:50.476Z,40.60
2019-04-06T16:44:43.531Z,42.00
2019-04-06T16:47:43.455Z,44.00
2019-04-06T16:50:33.003Z,45.70
2019-04-06T16:53:20.289Z,47.10
2019-04-06T16:56:10.364Z,48.50
2019-04-06T16:58:59.986Z,50.00
2019-04-06T17:01:47.062Z,51.40
2019-04-06T17:04:34.220Z,52.30
2019-04-06T17:07:36.206Z,53.20
2019-04-06T17:10:23.804Z,54.30
2019-04-06T17:13:14.297Z,54.90
2019-04-06T17:16:18.012Z,56.50
2019-04-06T17:19:14.383Z,57.20
2019-04-06T17:22:18.391Z,59.20
2019-04-06T17:25:23.339Z,61.10
2019-04-06T17:28:13.633Z,63.40
2019-04-06T17:31:11.010Z,66.00
2019-04-06T17:34:01.312Z,68.80
2019-04-06T17:36:54.967Z,71.00
2019-04-06T17:39:45.135Z,73.10
2019-04-06T17:42:41.625Z,75.40
2019-04-06T17:45:28.684Z,77.00
2019-04-06T17:48:24.997Z,80.40
2019-04-06T17:51:12.104Z,81.00
2019-04-06T17:54:14.496Z,83.10
2019-04-06T17:57:04.913Z,84.80
2019-04-06T17:59:57.875Z,88.10
2019-04-06T18:02:50.821Z,89.80
2019-04-06T18:05:37.313Z,91.10
2019-04-06T18:08:33.372Z,92.50
2019-04-06T18:11:20.605Z,94.10
2019-04-06T18:14:06.660Z,95.00
2019-04-06T18:16:51.919Z,95.80
2019-04-06T18:19:38.399Z,97.00
2019-04-06T18:22:25.832Z,97.80
2019-04-06T18:25:12.372Z,98.60
2019-04-06T18:27:58.435Z,99.40
2019-04-06T18:30:46.078Z,99.90
2019-04-06T18:33:31.231Z,99.90
2019-04-06T18:36:16.721Z,99.90
2019-04-06T18:39:07.233Z,99.90
2019-04-06T18:41:52.511Z,99.90
2019-04-06T18:44:37.920Z,99.90
2019-04-06T18:47:24.742Z,99.90
